sensor_id;sensor_type;location;lat;lon;timestamp;pressure;altitude;pressure_sealevel;temperature;humidity
83195;BME280;73090;49.282;11.402;2024-01-11T00:02:50;97392.81;;;-6.88;79.43
83195;BME280;73090;49.282;11.402;2024-01-11T00:06:51;97384.53;;;-6.95;79.09
83195;BME280;73090;49.282;11.402;2024-01-11T00:10:53;97391.63;;;-7.03;79.82
83195;BME280;73090;49.282;11.402;2024-01-11T00:14:57;97390.97;;;-7.08;80.48
83195;BME280;73090;49.282;11.402;2024-01-11T00:19:00;97390.72;;;-7.01;80.35
83195;BME280;73090;49.282;11.402;2024-01-11T00:23:02;97399.63;;;-7.13;79.43
83195;BME280;73090;49.282;11.402;2024-01-11T00:27:04;97395.94;;;-7.04;79.21
83195;BME280;73090;49.282;11.402;2024-01-11T00:31:06;97399.31;;;-7.03;79.94
83195;BME280;73090;49.282;11.402;2024-01-11T00:35:07;97412.09;;;-7.03;80.08
83195;BME280;73090;49.282;11.402;2024-01-11T00:39:10;97407.13;;;-7.08;79.68
83195;BME280;73090;49.282;11.402;2024-01-11T00:43:13;97411.53;;;-7.12;80.25
83195;BME280;73090;49.282;11.402;2024-01-11T00:47:14;97410.59;;;-7.09;79.66
83195;BME280;73090;49.282;11.402;2024-01-11T00:51:16;97412.81;;;-7.23;79.89
83195;BME280;73090;49.282;11.402;2024-01-11T00:55:18;97414.00;;;-7.34;80.55
83195;BME280;73090;49.282;11.402;2024-01-11T00:59:19;97418.50;;;-7.40;81.15
83195;BME280;73090;49.282;11.402;2024-01-11T01:03:21;97426.38;;;-7.47;81.16
83195;BME280;73090;49.282;11.402;2024-01-11T01:07:23;97425.59;;;-7.49;81.05
83195;BME280;73090;49.282;11.402;2024-01-11T01:11:25;97426.47;;;-7.50;81.08
83195;BME280;73090;49.282;11.402;2024-01-11T01:15:26;97416.97;;;-7.46;80.92
83195;BME280;73090;49.282;11.402;2024-01-11T01:19:28;97409.31;;;-7.46;81.68
83195;BME280;73090;49.282;11.402;2024-01-11T01:23:29;97406.16;;;-7.53;81.46
83195;BME280;73090;49.282;11.402;2024-01-11T01:27:31;97400.16;;;-7.52;81.35
83195;BME280;73090;49.282;11.402;2024-01-11T01:31:33;97397.09;;;-7.61;80.97
83195;BME280;73090;49.282;11.402;2024-01-11T01:35:39;97403.00;;;-7.59;81.75
83195;BME280;73090;49.282;11.402;2024-01-11T01:39:41;97409.31;;;-7.70;81.62
83195;BME280;73090;49.282;11.402;2024-01-11T01:43:42;97421.16;;;-7.69;82.17
83195;BME280;73090;49.282;11.402;2024-01-11T01:47:44;97424.59;;;-7.44;80.53
83195;BME280;73090;49.282;11.402;2024-01-11T01:51:46;97424.78;;;-7.25;79.57
83195;BME280;73090;49.282;11.402;2024-01-11T01:55:48;97421.25;;;-7.21;79.82
83195;BME280;73090;49.282;11.402;2024-01-11T01:59:51;97413.53;;;-7.20;79.38
83195;BME280;73090;49.282;11.402;2024-01-11T02:03:56;97417.81;;;-7.20;79.66
83195;BME280;73090;49.282;11.402;2024-01-11T02:08:01;97407.66;;;-7.22;79.59
83195;BME280;73090;49.282;11.402;2024-01-11T02:12:05;97409.56;;;-7.29;80.04
83195;BME280;73090;49.282;11.402;2024-01-11T02:16:07;97398.47;;;-7.27;80.35
83195;BME280;73090;49.282;11.402;2024-01-11T02:20:09;97403.63;;;-7.29;80.00
83195;BME280;73090;49.282;11.402;2024-01-11T02:24:11;97408.75;;;-7.29;80.94
83195;BME280;73090;49.282;11.402;2024-01-11T02:28:13;97416.56;;;-7.34;80.56
83195;BME280;73090;49.282;11.402;2024-01-11T02:32:14;97412.41;;;-7.36;80.92
83195;BME280;73090;49.282;11.402;2024-01-11T02:36:16;97410.03;;;-7.41;81.10
83195;BME280;73090;49.282;11.402;2024-01-11T02:40:19;97409.13;;;-7.40;80.82
83195;BME280;73090;49.282;11.402;2024-01-11T02:44:20;97393.94;;;-7.44;81.00
83195;BME280;73090;49.282;11.402;2024-01-11T02:48:22;97387.41;;;-7.52;80.78
83195;BME280;73090;49.282;11.402;2024-01-11T02:52:24;97390.22;;;-7.59;80.59
83195;BME280;73090;49.282;11.402;2024-01-11T02:56:26;97386.94;;;-7.63;80.63
83195;BME280;73090;49.282;11.402;2024-01-11T03:00:27;97383.69;;;-7.67;80.79
83195;BME280;73090;49.282;11.402;2024-01-11T03:04:29;97382.97;;;-7.72;80.94
83195;BME280;73090;49.282;11.402;2024-01-11T03:08:31;97382.09;;;-7.71;81.26
83195;BME280;73090;49.282;11.402;2024-01-11T03:12:32;97374.66;;;-7.77;81.23
83195;BME280;73090;49.282;11.402;2024-01-11T03:16:34;97365.53;;;-7.84;81.92
83195;BME280;73090;49.282;11.402;2024-01-11T03:20:36;97372.50;;;-7.89;81.77
83195;BME280;73090;49.282;11.402;2024-01-11T03:24:38;97368.44;;;-7.95;82.06
83195;BME280;73090;49.282;11.402;2024-01-11T03:28:43;97378.84;;;-8.01;81.95
83195;BME280;73090;49.282;11.402;2024-01-11T03:32:44;97370.81;;;-8.15;81.90
83195;BME280;73090;49.282;11.402;2024-01-11T03:36:46;97365.78;;;-8.17;82.56
83195;BME280;73090;49.282;11.402;2024-01-11T03:40:48;97370.09;;;-8.19;82.46
83195;BME280;73090;49.282;11.402;2024-01-11T03:44:49;97377.91;;;-8.24;82.51
83195;BME280;73090;49.282;11.402;2024-01-11T03:48:51;97378.03;;;-8.28;82.86
83195;BME280;73090;49.282;11.402;2024-01-11T03:52:53;97369.75;;;-8.35;82.77
83195;BME280;73090;49.282;11.402;2024-01-11T03:56:54;97370.63;;;-8.36;83.28
83195;BME280;73090;49.282;11.402;2024-01-11T04:00:56;97368.09;;;-8.36;83.63
83195;BME280;73090;49.282;11.402;2024-01-11T04:04:57;97363.84;;;-8.37;83.13
83195;BME280;73090;49.282;11.402;2024-01-11T04:08:59;97361.09;;;-8.31;83.24
83195;BME280;73090;49.282;11.402;2024-01-11T04:13:01;97362.09;;;-8.35;82.86
83195;BME280;73090;49.282;11.402;2024-01-11T04:17:02;97364.00;;;-8.42;82.73
83195;BME280;73090;49.282;11.402;2024-01-11T04:21:04;97363.41;;;-8.48;83.18
83195;BME280;73090;49.282;11.402;2024-01-11T04:25:07;97369.25;;;-8.46;83.49
83195;BME280;73090;49.282;11.402;2024-01-11T04:29:08;97360.94;;;-8.51;83.20
83195;BME280;73090;49.282;11.402;2024-01-11T04:33:10;97370.44;;;-8.57;83.70
83195;BME280;73090;49.282;11.402;2024-01-11T04:37:12;97377.38;;;-8.60;83.09
83195;BME280;73090;49.282;11.402;2024-01-11T04:41:14;97388.53;;;-8.64;83.75
83195;BME280;73090;49.282;11.402;2024-01-11T04:45:16;97387.09;;;-8.73;84.00
83195;BME280;73090;49.282;11.402;2024-01-11T04:49:18;97391.34;;;-8.73;84.51
83195;BME280;73090;49.282;11.402;2024-01-11T04:53:19;97396.31;;;-8.69;84.45
83195;BME280;73090;49.282;11.402;2024-01-11T04:57:21;97393.06;;;-8.74;83.58
83195;BME280;73090;49.282;11.402;2024-01-11T05:01:23;97392.34;;;-8.78;83.75
83195;BME280;73090;49.282;11.402;2024-01-11T05:05:25;97402.47;;;-8.76;83.79
83195;BME280;73090;49.282;11.402;2024-01-11T05:09:27;97408.41;;;-8.76;83.83
83195;BME280;73090;49.282;11.402;2024-01-11T05:13:29;97408.44;;;-8.77;84.03
83195;BME280;73090;49.282;11.402;2024-01-11T05:17:30;97406.84;;;-8.81;84.28
83195;BME280;73090;49.282;11.402;2024-01-11T05:21:32;97404.50;;;-8.87;84.02
83195;BME280;73090;49.282;11.402;2024-01-11T05:25:34;97403.47;;;-8.82;84.55
83195;BME280;73090;49.282;11.402;2024-01-11T05:29:36;97397.81;;;-8.91;84.14
83195;BME280;73090;49.282;11.402;2024-01-11T05:33:38;97389.41;;;-8.94;84.66
83195;BME280;73090;49.282;11.402;2024-01-11T05:37:40;97398.66;;;-8.91;84.65
83195;BME280;73090;49.282;11.402;2024-01-11T05:41:44;97397.13;;;-8.97;84.20
83195;BME280;73090;49.282;11.402;2024-01-11T05:45:46;97407.53;;;-9.04;83.86
83195;BME280;73090;49.282;11.402;2024-01-11T05:49:48;97409.44;;;-9.11;84.46
83195;BME280;73090;49.282;11.402;2024-01-11T05:53:51;97406.06;;;-9.13;84.75
83195;BME280;73090;49.282;11.402;2024-01-11T05:57:52;97405.13;;;-9.09;84.92
83195;BME280;73090;49.282;11.402;2024-01-11T06:01:54;97416.97;;;-9.08;84.44
83195;BME280;73090;49.282;11.402;2024-01-11T06:05:55;97426.44;;;-9.13;84.54
83195;BME280;73090;49.282;11.402;2024-01-11T06:09:57;97412.22;;;-9.20;84.46
83195;BME280;73090;49.282;11.402;2024-01-11T06:13:59;97414.00;;;-9.22;84.92
83195;BME280;73090;49.282;11.402;2024-01-11T06:18:02;97413.06;;;-9.20;85.09
83195;BME280;73090;49.282;11.402;2024-01-11T06:22:04;97407.38;;;-9.30;84.50
83195;BME280;73090;49.282;11.402;2024-01-11T06:26:07;97407.38;;;-9.30;84.64
83195;BME280;73090;49.282;11.402;2024-01-11T06:30:09;97417.53;;;-9.28;85.39
83195;BME280;73090;49.282;11.402;2024-01-11T06:34:11;97427.00;;;-9.33;84.62
83195;BME280;73090;49.282;11.402;2024-01-11T06:38:13;97427.03;;;-9.35;84.96
83195;BME280;73090;49.282;11.402;2024-01-11T06:42:15;97427.13;;;-9.38;85.29
83195;BME280;73090;49.282;11.402;2024-01-11T06:46:20;97426.31;;;-9.38;85.47
83195;BME280;73090;49.282;11.402;2024-01-11T06:50:23;97422.56;;;-9.26;86.00
83195;BME280;73090;49.282;11.402;2024-01-11T06:54:24;97444.66;;;-9.27;85.50
83195;BME280;73090;49.282;11.402;2024-01-11T06:58:26;97444.59;;;-9.24;85.07
83195;BME280;73090;49.282;11.402;2024-01-11T07:02:28;97448.94;;;-9.29;85.40
83195;BME280;73090;49.282;11.402;2024-01-11T07:06:30;97452.44;;;-9.32;85.47
83195;BME280;73090;49.282;11.402;2024-01-11T07:10:31;97457.53;;;-9.32;85.81
83195;BME280;73090;49.282;11.402;2024-01-11T07:14:33;97457.63;;;-9.36;85.82
83195;BME280;73090;49.282;11.402;2024-01-11T07:18:35;97458.44;;;-9.34;85.87
83195;BME280;73090;49.282;11.402;2024-01-11T07:22:37;97477.19;;;-9.37;85.11
83195;BME280;73090;49.282;11.402;2024-01-11T07:26:42;97474.53;;;-9.34;85.65
83195;BME280;73090;49.282;11.402;2024-01-11T07:30:44;97455.56;;;-9.22;85.97
83195;BME280;73090;49.282;11.402;2024-01-11T07:34:46;97463.53;;;-9.03;86.66
83195;BME280;73090;49.282;11.402;2024-01-11T07:38:48;97453.50;;;-8.78;86.74
83195;BME280;73090;49.282;11.402;2024-01-11T07:42:50;97461.16;;;-8.49;85.70
83195;BME280;73090;49.282;11.402;2024-01-11T07:46:51;97468.59;;;-8.43;84.11
83195;BME280;73090;49.282;11.402;2024-01-11T07:50:56;97476.75;;;-8.32;84.09
83195;BME280;73090;49.282;11.402;2024-01-11T07:54:58;97485.06;;;-8.25;83.42
83195;BME280;73090;49.282;11.402;2024-01-11T07:59:07;97491.31;;;-8.07;83.55
83195;BME280;73090;49.282;11.402;2024-01-11T08:03:09;97492.59;;;-7.94;82.77
83195;BME280;73090;49.282;11.402;2024-01-11T08:07:11;97501.16;;;-7.68;82.93
83195;BME280;73090;49.282;11.402;2024-01-11T08:11:12;97505.63;;;-7.50;82.44
83195;BME280;73090;49.282;11.402;2024-01-11T08:15:14;97503.88;;;-7.22;82.08
83195;BME280;73090;49.282;11.402;2024-01-11T08:19:15;97508.94;;;-6.96;80.86
83195;BME280;73090;49.282;11.402;2024-01-11T08:23:18;97508.78;;;-6.67;80.84
83195;BME280;73090;49.282;11.402;2024-01-11T08:27:19;97509.13;;;-6.53;79.68
83195;BME280;73090;49.282;11.402;2024-01-11T08:31:21;97525.56;;;-6.60;79.70
83195;BME280;73090;49.282;11.402;2024-01-11T08:35:23;97506.66;;;-6.32;80.48
83195;BME280;73090;49.282;11.402;2024-01-11T08:39:24;97503.19;;;-5.87;80.48
83195;BME280;73090;49.282;11.402;2024-01-11T08:43:26;97496.09;;;-5.38;80.39
83195;BME280;73090;49.282;11.402;2024-01-11T08:47:28;97500.13;;;-4.91;78.64
83195;BME280;73090;49.282;11.402;2024-01-11T08:51:30;97488.84;;;-4.49;76.31
83195;BME280;73090;49.282;11.402;2024-01-11T08:55:33;97479.84;;;-4.20;75.01
83195;BME280;73090;49.282;11.402;2024-01-11T08:59:35;97483.81;;;-3.95;73.68
83195;BME280;73090;49.282;11.402;2024-01-11T09:03:36;97484.44;;;-3.90;71.37
83195;BME280;73090;49.282;11.402;2024-01-11T09:07:38;97489.72;;;-4.29;70.57
83195;BME280;73090;49.282;11.402;2024-01-11T09:11:40;97464.13;;;-3.94;72.45
83195;BME280;73090;49.282;11.402;2024-01-11T09:15:42;97468.16;;;-3.54;71.64
83195;BME280;73090;49.282;11.402;2024-01-11T09:19:43;97455.28;;;-3.19;70.37
83195;BME280;73090;49.282;11.402;2024-01-11T09:23:45;97442.78;;;-2.76;67.92
83195;BME280;73090;49.282;11.402;2024-01-11T09:27:47;97420.66;;;-2.46;66.46
83195;BME280;73090;49.282;11.402;2024-01-11T09:31:48;97429.34;;;-2.49;64.37
83195;BME280;73090;49.282;11.402;2024-01-11T09:35:50;97462.53;;;-3.10;64.87
83195;BME280;73090;49.282;11.402;2024-01-11T09:39:52;97469.97;;;-3.38;66.57
83195;BME280;73090;49.282;11.402;2024-01-11T09:43:54;97470.25;;;-3.79;67.77
83195;BME280;73090;49.282;11.402;2024-01-11T09:47:59;97461.34;;;-3.55;67.79
83195;BME280;73090;49.282;11.402;2024-01-11T09:52:01;97479.03;;;-3.66;67.95
83195;BME280;73090;49.282;11.402;2024-01-11T09:56:07;97478.38;;;-3.35;68.66
83195;BME280;73090;49.282;11.402;2024-01-11T10:00:09;97486.00;;;-3.51;67.79
83195;BME280;73090;49.282;11.402;2024-01-11T10:04:14;97482.59;;;-3.51;68.78
83195;BME280;73090;49.282;11.402;2024-01-11T10:08:19;97475.41;;;-3.44;67.53
83195;BME280;73090;49.282;11.402;2024-01-11T10:12:22;97491.13;;;-3.51;67.98
83195;BME280;73090;49.282;11.402;2024-01-11T10:16:30;97467.44;;;-3.05;68.77
83195;BME280;73090;49.282;11.402;2024-01-11T10:20:32;97455.25;;;-2.68;66.93
83195;BME280;73090;49.282;11.402;2024-01-11T10:24:34;97469.25;;;-2.24;66.88
83195;BME280;73090;49.282;11.402;2024-01-11T10:28:36;97469.25;;;-2.08;65.56
83195;BME280;73090;49.282;11.402;2024-01-11T10:32:39;97481.69;;;-2.01;63.51
83195;BME280;73090;49.282;11.402;2024-01-11T10:36:41;97468.41;;;-2.25;64.67
83195;BME280;73090;49.282;11.402;2024-01-11T10:40:43;97478.03;;;-2.44;65.33
83195;BME280;73090;49.282;11.402;2024-01-11T10:44:46;97469.31;;;-2.42;64.90
83195;BME280;73090;49.282;11.402;2024-01-11T10:48:54;97481.25;;;-2.41;65.50
83195;BME280;73090;49.282;11.402;2024-01-11T10:57:08;97473.94;;;-2.48;66.48
83195;BME280;73090;49.282;11.402;2024-01-11T11:01:11;97462.00;;;-2.65;67.31
83195;BME280;73090;49.282;11.402;2024-01-11T11:05:15;97448.97;;;-2.62;67.64
83195;BME280;73090;49.282;11.402;2024-01-11T11:09:18;97456.50;;;-2.59;66.91
83195;BME280;73090;49.282;11.402;2024-01-11T11:13:20;97436.91;;;-2.46;66.82
83195;BME280;73090;49.282;11.402;2024-01-11T11:17:22;97426.69;;;-2.31;67.31
83195;BME280;73090;49.282;11.402;2024-01-11T11:21:24;97443.97;;;-2.33;67.20
83195;BME280;73090;49.282;11.402;2024-01-11T11:25:26;97447.47;;;-2.34;66.58
83195;BME280;73090;49.282;11.402;2024-01-11T11:29:28;97435.41;;;-2.34;67.72
83195;BME280;73090;49.282;11.402;2024-01-11T11:33:29;97425.97;;;-2.33;67.06
83195;BME280;73090;49.282;11.402;2024-01-11T11:37:32;97422.88;;;-2.24;67.39
83195;BME280;73090;49.282;11.402;2024-01-11T11:41:35;97422.13;;;-2.26;67.14
83195;BME280;73090;49.282;11.402;2024-01-11T11:45:37;97420.47;;;-2.27;67.50
83195;BME280;73090;49.282;11.402;2024-01-11T11:50:08;97422.44;;;-2.16;67.75
83195;BME280;73090;49.282;11.402;2024-01-11T11:54:11;97414.28;;;-2.09;66.48
83195;BME280;73090;49.282;11.402;2024-01-11T11:58:16;97417.19;;;-1.99;65.84
83195;BME280;73090;49.282;11.402;2024-01-11T12:02:19;97428.91;;;-1.93;66.88
83195;BME280;73090;49.282;11.402;2024-01-11T12:06:22;97437.19;;;-1.88;66.55
83195;BME280;73090;49.282;11.402;2024-01-11T12:10:29;97427.81;;;-1.89;66.95
83195;BME280;73090;49.282;11.402;2024-01-11T12:14:31;97419.63;;;-1.82;66.77
83195;BME280;73090;49.282;11.402;2024-01-11T12:18:32;97420.16;;;-1.75;66.86
83195;BME280;73090;49.282;11.402;2024-01-11T12:22:34;97413.34;;;-1.61;66.81
83195;BME280;73090;49.282;11.402;2024-01-11T12:26:37;97403.59;;;-1.56;65.14
83195;BME280;73090;49.282;11.402;2024-01-11T12:30:39;97410.00;;;-1.48;64.62
83195;BME280;73090;49.282;11.402;2024-01-11T12:34:43;97401.63;;;-1.37;64.87
83195;BME280;73090;49.282;11.402;2024-01-11T12:38:46;97378.03;;;-1.31;63.71
83195;BME280;73090;49.282;11.402;2024-01-11T12:42:53;97370.50;;;-1.19;65.17
83195;BME280;73090;49.282;11.402;2024-01-11T12:46:56;97375.09;;;-1.10;65.32
83195;BME280;73090;49.282;11.402;2024-01-11T12:50:58;97367.72;;;-1.02;64.61
83195;BME280;73090;49.282;11.402;2024-01-11T12:55:18;97373.25;;;-0.94;63.44
83195;BME280;73090;49.282;11.402;2024-01-11T12:59:25;97383.22;;;-0.87;62.49
83195;BME280;73090;49.282;11.402;2024-01-11T13:03:27;97377.66;;;-0.96;62.37
83195;BME280;73090;49.282;11.402;2024-01-11T13:07:30;97370.94;;;-0.84;63.47
83195;BME280;73090;49.282;11.402;2024-01-11T13:11:31;97373.81;;;-0.88;62.52
83195;BME280;73090;49.282;11.402;2024-01-11T13:15:34;97371.22;;;-0.88;64.45
83195;BME280;73090;49.282;11.402;2024-01-11T13:19:37;97370.59;;;-1.06;64.93
83195;BME280;73090;49.282;11.402;2024-01-11T13:23:39;97375.84;;;-1.08;65.11
83195;BME280;73090;49.282;11.402;2024-01-11T13:27:41;97369.09;;;-1.11;64.45
83195;BME280;73090;49.282;11.402;2024-01-11T13:31:43;97383.94;;;-1.14;65.72
83195;BME280;73090;49.282;11.402;2024-01-11T13:35:45;97378.25;;;-1.19;65.18
83195;BME280;73090;49.282;11.402;2024-01-11T13:39:47;97374.09;;;-1.22;65.97
83195;BME280;73090;49.282;11.402;2024-01-11T13:43:49;97374.19;;;-1.23;64.79
83195;BME280;73090;49.282;11.402;2024-01-11T13:47:52;97382.56;;;-1.20;66.05
83195;BME280;73090;49.282;11.402;2024-01-11T13:51:55;97380.53;;;-1.29;66.81
83195;BME280;73090;49.282;11.402;2024-01-11T13:56:02;97390.66;;;-1.40;67.38
83195;BME280;73090;49.282;11.402;2024-01-11T14:00:05;97378.00;;;-1.45;68.49
83195;BME280;73090;49.282;11.402;2024-01-11T14:04:07;97381.16;;;-1.54;67.80
83195;BME280;73090;49.282;11.402;2024-01-11T14:08:08;97367.94;;;-1.64;68.80
83195;BME280;73090;49.282;11.402;2024-01-11T14:12:10;97352.38;;;-1.62;68.40
83195;BME280;73090;49.282;11.402;2024-01-11T14:16:14;97360.47;;;-1.69;68.63
83195;BME280;73090;49.282;11.402;2024-01-11T14:20:18;97354.13;;;-1.77;69.35
83195;BME280;73090;49.282;11.402;2024-01-11T14:24:20;97357.88;;;-1.83;70.63
83195;BME280;73090;49.282;11.402;2024-01-11T14:28:33;97349.94;;;-1.94;70.90
83195;BME280;73090;49.282;11.402;2024-01-11T14:32:34;97359.53;;;-2.12;70.89
83195;BME280;73090;49.282;11.402;2024-01-11T14:36:38;97377.75;;;-2.15;72.30
83195;BME280;73090;49.282;11.402;2024-01-11T14:40:40;97384.06;;;-2.37;72.54
83195;BME280;73090;49.282;11.402;2024-01-11T14:44:43;97382.53;;;-2.56;73.47
83195;BME280;73090;49.282;11.402;2024-01-11T14:48:44;97393.06;;;-2.60;74.06
83195;BME280;73090;49.282;11.402;2024-01-11T14:52:47;97395.72;;;-2.78;74.83
83195;BME280;73090;49.282;11.402;2024-01-11T14:56:48;97407.38;;;-2.88;75.05
83195;BME280;73090;49.282;11.402;2024-01-11T15:00:50;97413.69;;;-2.94;74.95
83195;BME280;73090;49.282;11.402;2024-01-11T15:04:53;97404.72;;;-3.02;75.97
83195;BME280;73090;49.282;11.402;2024-01-11T15:08:54;97416.81;;;-3.04;75.72
83195;BME280;73090;49.282;11.402;2024-01-11T15:12:56;97427.34;;;-3.09;76.25
83195;BME280;73090;49.282;11.402;2024-01-11T15:16:58;97436.19;;;-3.31;77.17
83195;BME280;73090;49.282;11.402;2024-01-11T15:20:59;97420.38;;;-3.40;76.98
83195;BME280;73090;49.282;11.402;2024-01-11T15:25:01;97417.19;;;-3.46;77.63
83195;BME280;73090;49.282;11.402;2024-01-11T15:29:03;97411.16;;;-3.44;76.70
83195;BME280;73090;49.282;11.402;2024-01-11T15:33:05;97405.19;;;-3.45;76.82
83195;BME280;73090;49.282;11.402;2024-01-11T15:37:07;97406.91;;;-3.46;77.18
83195;BME280;73090;49.282;11.402;2024-01-11T15:41:09;97419.25;;;-3.52;76.50
83195;BME280;73090;49.282;11.402;2024-01-11T15:45:10;97410.88;;;-3.56;77.10
83195;BME280;73090;49.282;11.402;2024-01-11T15:49:14;97399.00;;;-3.58;76.98
83195;BME280;73090;49.282;11.402;2024-01-11T15:53:16;97408.44;;;-3.59;77.09
83195;BME280;73090;49.282;11.402;2024-01-11T15:57:18;97394.94;;;-3.62;76.47
83195;BME280;73090;49.282;11.402;2024-01-11T16:01:20;97405.94;;;-3.60;76.06
83195;BME280;73090;49.282;11.402;2024-01-11T16:05:22;97423.34;;;-3.66;76.51
83195;BME280;73090;49.282;11.402;2024-01-11T16:09:24;97425.53;;;-3.75;75.78
83195;BME280;73090;49.282;11.402;2024-01-11T16:13:26;97422.34;;;-3.80;75.80
83195;BME280;73090;49.282;11.402;2024-01-11T16:17:28;97437.00;;;-3.83;76.24
83195;BME280;73090;49.282;11.402;2024-01-11T16:21:32;97444.94;;;-3.87;76.47
83195;BME280;73090;49.282;11.402;2024-01-11T16:25:34;97463.34;;;-3.96;76.39
83195;BME280;73090;49.282;11.402;2024-01-11T16:29:35;97455.84;;;-4.01;76.87
83195;BME280;73090;49.282;11.402;2024-01-11T16:33:38;97448.28;;;-4.04;77.04
83195;BME280;73090;49.282;11.402;2024-01-11T16:37:40;97454.50;;;-4.08;78.21
83195;BME280;73090;49.282;11.402;2024-01-11T16:41:42;97452.91;;;-4.11;78.03
83195;BME280;73090;49.282;11.402;2024-01-11T16:45:44;97453.03;;;-4.14;77.87
83195;BME280;73090;49.282;11.402;2024-01-11T16:49:45;97450.41;;;-4.12;76.97
83195;BME280;73090;49.282;11.402;2024-01-11T16:53:47;97458.16;;;-4.14;76.90
83195;BME280;73090;49.282;11.402;2024-01-11T16:57:49;97459.03;;;-4.13;76.50
83195;BME280;73090;49.282;11.402;2024-01-11T17:01:51;97452.97;;;-4.12;76.12
83195;BME280;73090;49.282;11.402;2024-01-11T17:05:52;97451.09;;;-4.09;75.83
83195;BME280;73090;49.282;11.402;2024-01-11T17:09:54;97450.19;;;-4.08;77.06
83195;BME280;73090;49.282;11.402;2024-01-11T17:13:55;97455.31;;;-4.08;77.31
83195;BME280;73090;49.282;11.402;2024-01-11T17:17:57;97455.25;;;-4.06;76.83
83195;BME280;73090;49.282;11.402;2024-01-11T17:21:59;97457.06;;;-4.08;76.59
83195;BME280;73090;49.282;11.402;2024-01-11T17:26:03;97463.16;;;-4.11;76.15
83195;BME280;73090;49.282;11.402;2024-01-11T17:30:06;97456.53;;;-4.15;77.02
83195;BME280;73090;49.282;11.402;2024-01-11T17:34:09;97463.31;;;-4.14;76.68
83195;BME280;73090;49.282;11.402;2024-01-11T17:38:11;97471.22;;;-4.19;77.78
83195;BME280;73090;49.282;11.402;2024-01-11T17:42:13;97473.31;;;-4.27;77.63
83195;BME280;73090;49.282;11.402;2024-01-11T17:46:21;97459.94;;;-4.33;76.65
83195;BME280;73090;49.282;11.402;2024-01-11T17:50:23;97460.97;;;-4.38;76.74
83195;BME280;73090;49.282;11.402;2024-01-11T17:54:25;97461.97;;;-4.40;76.87
83195;BME280;73090;49.282;11.402;2024-01-11T17:58:27;97460.50;;;-4.46;77.56
83195;BME280;73090;49.282;11.402;2024-01-11T18:02:32;97464.88;;;-4.48;77.66
83195;BME280;73090;49.282;11.402;2024-01-11T18:06:34;97463.97;;;-4.66;78.04
83195;BME280;73090;49.282;11.402;2024-01-11T18:10:36;97460.00;;;-4.73;78.45
83195;BME280;73090;49.282;11.402;2024-01-11T18:14:40;97458.31;;;-4.74;77.92
83195;BME280;73090;49.282;11.402;2024-01-11T18:18:42;97449.13;;;-4.78;78.51
83195;BME280;73090;49.282;11.402;2024-01-11T18:22:45;97452.78;;;-4.84;78.40
83195;BME280;73090;49.282;11.402;2024-01-11T18:26:46;97468.91;;;-5.01;78.39
83195;BME280;73090;49.282;11.402;2024-01-11T18:30:48;97479.25;;;-5.02;79.01
83195;BME280;73090;49.282;11.402;2024-01-11T18:34:50;97482.25;;;-5.13;79.21
83195;BME280;73090;49.282;11.402;2024-01-11T18:38:52;97490.19;;;-5.19;78.96
83195;BME280;73090;49.282;11.402;2024-01-11T18:42:59;97486.03;;;-5.22;80.07
83195;BME280;73090;49.282;11.402;2024-01-11T18:47:02;97488.72;;;-5.25;80.30
83195;BME280;73090;49.282;11.402;2024-01-11T18:51:04;97487.00;;;-5.24;79.97
83195;BME280;73090;49.282;11.402;2024-01-11T18:55:09;97483.69;;;-5.26;80.04
83195;BME280;73090;49.282;11.402;2024-01-11T18:59:17;97467.47;;;-5.27;80.58
83195;BME280;73090;49.282;11.402;2024-01-11T19:03:19;97462.31;;;-5.27;79.77
83195;BME280;73090;49.282;11.402;2024-01-11T19:07:21;97459.00;;;-5.29;79.66
83195;BME280;73090;49.282;11.402;2024-01-11T19:11:23;97454.97;;;-5.35;80.19
83195;BME280;73090;49.282;11.402;2024-01-11T19:15:25;97462.00;;;-5.40;80.46
83195;BME280;73090;49.282;11.402;2024-01-11T19:19:26;97473.16;;;-5.41;80.77
83195;BME280;73090;49.282;11.402;2024-01-11T19:23:28;97479.25;;;-5.43;80.57
83195;BME280;73090;49.282;11.402;2024-01-11T19:27:30;97479.50;;;-5.50;81.30
83195;BME280;73090;49.282;11.402;2024-01-11T19:31:32;97481.44;;;-5.55;81.34
83195;BME280;73090;49.282;11.402;2024-01-11T19:35:34;97481.63;;;-5.59;82.25
83195;BME280;73090;49.282;11.402;2024-01-11T19:39:35;97480.84;;;-5.61;82.04
83195;BME280;73090;49.282;11.402;2024-01-11T19:43:38;97492.75;;;-5.60;81.47
83195;BME280;73090;49.282;11.402;2024-01-11T19:47:47;97488.44;;;-5.60;81.40
83195;BME280;73090;49.282;11.402;2024-01-11T19:51:49;97513.81;;;-5.54;81.43
83195;BME280;73090;49.282;11.402;2024-01-11T19:55:51;97510.09;;;-5.67;81.45
83195;BME280;73090;49.282;11.402;2024-01-11T19:59:53;97508.59;;;-5.73;82.02
83195;BME280;73090;49.282;11.402;2024-01-11T20:03:54;97503.59;;;-5.76;82.10
83195;BME280;73090;49.282;11.402;2024-01-11T20:08:01;97506.38;;;-5.80;81.63
83195;BME280;73090;49.282;11.402;2024-01-11T20:12:04;97498.00;;;-5.86;81.98
83195;BME280;73090;49.282;11.402;2024-01-11T20:16:06;97501.31;;;-5.82;82.28
83195;BME280;73090;49.282;11.402;2024-01-11T20:20:10;97500.44;;;-5.83;82.22
83195;BME280;73090;49.282;11.402;2024-01-11T20:24:12;97509.34;;;-5.91;82.47
83195;BME280;73090;49.282;11.402;2024-01-11T20:28:13;97523.22;;;-5.97;82.63
83195;BME280;73090;49.282;11.402;2024-01-11T20:32:15;97517.53;;;-6.04;83.00
83195;BME280;73090;49.282;11.402;2024-01-11T20:36:17;97521.50;;;-6.18;82.60
83195;BME280;73090;49.282;11.402;2024-01-11T20:40:19;97524.78;;;-6.15;82.99
83195;BME280;73090;49.282;11.402;2024-01-11T20:44:20;97538.50;;;-6.17;83.33
83195;BME280;73090;49.282;11.402;2024-01-11T20:48:22;97536.75;;;-6.15;83.58
83195;BME280;73090;49.282;11.402;2024-01-11T20:52:24;97533.28;;;-6.14;83.63
83195;BME280;73090;49.282;11.402;2024-01-11T20:56:27;97536.91;;;-6.20;83.47
83195;BME280;73090;49.282;11.402;2024-01-11T21:00:31;97541.41;;;-6.27;84.00
83195;BME280;73090;49.282;11.402;2024-01-11T21:04:33;97543.19;;;-6.29;83.56
83195;BME280;73090;49.282;11.402;2024-01-11T21:08:35;97545.03;;;-6.32;84.08
83195;BME280;73090;49.282;11.402;2024-01-11T21:12:37;97537.66;;;-6.40;83.49